createdAt,value
2022-11-24T03:45:45.827Z,628.4
2022-11-24T03:46:39.941Z,629.6
2022-11-24T03:47:39.806Z,625.5
2022-11-24T03:48:39.948Z,627.2
2022-11-24T03:49:39.766Z,624.9
2022-11-24T03:50:39.842Z,620.3
2022-11-24T03:51:39.741Z,620.9
2022-11-24T03:52:39.804Z,621.4
2022-11-24T03:53:39.884Z,623.7
2022-11-24T03:54:39.704Z,622.6
2022-11-24T03:55:39.840Z,625.5
2022-11-24T03:56:39.671Z,625.5
2022-11-24T03:57:39.741Z,626.1
2022-11-24T03:58:39.650Z,630.2
2022-11-24T03:59:39.730Z,631.4
2022-11-24T04:00:39.660Z,630.8
2022-11-24T04:01:39.784Z,629.6
2022-11-24T04:02:39.616Z,628.4
2022-11-24T04:03:39.661Z,630.2
2022-11-24T04:04:39.573Z,626.7
2022-11-24T04:05:39.654Z,630.2
2022-11-24T04:06:39.539Z,632.0
2022-11-24T04:07:39.716Z,626.7
2022-11-24T04:08:39.520Z,626.1
2022-11-24T04:09:39.609Z,627.8
2022-11-24T04:10:39.995Z,631.4
2022-11-24T04:11:39.470Z,630.2
2022-11-24T04:12:39.548Z,628.4
2022-11-24T04:13:39.447Z,630.2
2022-11-24T04:14:39.531Z,629.0
2022-11-24T04:15:39.537Z,631.4
2022-11-24T04:16:39.491Z,631.4
2022-11-24T04:17:39.399Z,634.9
2022-11-24T04:18:39.467Z,632.6
2022-11-24T04:19:39.376Z,632.0
2022-11-24T04:20:39.447Z,631.4
2022-11-24T04:21:39.335Z,634.9
2022-11-24T04:22:39.407Z,632.0
2022-11-24T04:23:39.311Z,632.0
2022-11-24T04:24:39.415Z,626.7
2022-11-24T04:25:39.291Z,627.8
2022-11-24T04:26:39.346Z,622.0
2022-11-24T04:27:39.265Z,624.3
2022-11-24T04:28:39.314Z,623.2
2022-11-24T04:29:39.248Z,624.3
2022-11-24T04:30:39.295Z,626.7
2022-11-24T04:31:39.299Z,627.8
2022-11-24T04:32:39.267Z,626.7
2022-11-24T04:33:39.173Z,630.8
2022-11-24T04:34:39.226Z,630.2
2022-11-24T04:35:39.141Z,630.2
2022-11-24T04:36:39.218Z,630.2
2022-11-24T04:37:39.129Z,631.4
2022-11-24T04:39:22.853Z,632.0
2022-11-24T04:39:39.085Z,633.7
2022-11-24T04:40:39.164Z,634.3
2022-11-24T04:41:39.074Z,633.7
2022-11-24T04:42:39.146Z,633.2
2022-11-24T05:09:58.531Z,642.8
2022-11-24T05:10:38.755Z,641.0
2022-11-24T06:20:36.816Z,585.7
2022-11-24T06:21:37.804Z,588.2
2022-11-24T06:22:37.707Z,583.6
2022-11-24T06:23:37.871Z,584.1
2022-11-24T06:24:37.671Z,584.1
2022-11-24T06:25:37.849Z,583.1
2022-11-24T06:26:37.639Z,584.1
2022-11-24T06:27:37.711Z,585.21
2022-11-24T06:28:37.623Z,579.6
2022-11-24T06:29:37.696Z,578.1
2022-11-24T06:30:37.587Z,579.1
2022-11-24T06:31:37.776Z,579.16
2022-11-24T06:32:37.573Z,584.19
2022-11-24T06:33:37.636Z,580.16
2022-11-24T06:34:37.628Z,583.18
2022-11-24T06:35:37.613Z,583.18
2022-11-24T06:36:37.519Z,583.18
2022-11-24T06:37:37.592Z,584.19
2022-11-24T06:38:37.494Z,583.18
2022-11-24T06:39:37.551Z,580.16
2022-11-24T06:40:37.493Z,580.66
2022-11-24T06:41:37.612Z,581.66
2022-11-24T06:42:37.439Z,584.19
2022-11-24T06:43:37.498Z,581.66
2022-11-24T06:44:37.396Z,582.17
2022-11-24T06:45:37.761Z,577.17
2022-11-24T06:46:37.379Z,576.67
2022-11-24T06:47:37.468Z,572.25
2022-11-24T06:48:37.351Z,572.74
2022-11-24T06:49:37.416Z,567.90
2022-11-24T06:50:37.327Z,566.46
2022-11-24T07:01:36.284Z,556.14
2022-11-24T07:03:36.217Z,555.22
2022-11-24T07:05:36.097Z,558.92
2022-11-24T07:06:37.193Z,560.79
2022-11-24T07:07:37.125Z,562.19
2022-11-24T07:08:37.198Z,561.25
2022-11-24T07:09:37.081Z,557.53
2022-11-24T07:10:37.137Z,558.92
2022-11-24T07:11:37.038Z,561.25
2022-11-24T07:12:37.115Z,564.08
2022-11-24T07:13:37.022Z,567.42
2022-11-24T07:14:37.380Z,571.28
2022-11-24T07:15:37.004Z,573.23
2022-11-24T07:16:37.102Z,571.76
2022-11-24T07:17:36.977Z,570.79
2022-11-24T07:18:37.046Z,573.23
2022-11-24T07:19:36.951Z,575.19
2022-11-24T07:20:37.044Z,573.23
2022-11-24T07:21:36.909Z,573.23
2022-11-24T07:22:36.971Z,572.74
2022-11-24T07:23:36.892Z,577.66
2022-11-24T07:24:37.273Z,578.16
2022-11-24T07:25:36.959Z,576.67
2022-11-24T07:26:36.918Z,576.18
2022-11-24T07:27:36.840Z,577.66
2022-11-24T07:28:36.919Z,578.66
2022-11-24T07:29:36.801Z,578.16
2022-11-24T07:30:36.861Z,575.19
2022-11-24T07:31:36.844Z,570.79
2022-11-24T07:32:37.061Z,570.79
2022-11-24T07:33:36.761Z,567.90
2022-11-24T07:34:37.192Z,570.79
2022-11-24T07:35:36.719Z,571.76
2022-11-24T07:36:36.790Z,574.21
2022-11-24T07:37:36.703Z,577.17
2022-11-24T07:38:36.778Z,578.16
2022-11-24T07:39:36.688Z,578.66
2022-11-24T07:40:36.757Z,578.16
2022-11-24T07:41:36.641Z,578.66
2022-11-24T07:42:36.717Z,580.66
2022-11-24T07:43:36.630Z,583.18
2022-11-24T07:44:37.077Z,583.18
2022-11-24T07:45:36.630Z,586.23
2022-11-24T07:46:36.661Z,587.26
2022-11-24T07:47:36.569Z,587.26
2022-11-24T07:48:36.655Z,592.44
2022-11-24T07:49:36.534Z,592.44
2022-11-24T07:50:36.613Z,596.65
2022-11-24T07:51:36.518Z,599.31
2022-11-24T07:52:36.579Z,599.84
2022-11-24T07:53:36.482Z,599.31
2022-11-24T07:54:36.835Z,601.99
2022-11-24T07:55:36.472Z,599.31
2022-11-24T07:56:36.761Z,598.24
2022-11-24T07:57:36.435Z,599.31
2022-11-24T07:58:36.508Z,601.99
2022-11-24T07:59:36.411Z,599.84
2022-11-24T08:00:36.506Z,598.24
2022-11-24T08:01:36.397Z,598.24
2022-11-24T08:02:36.445Z,598.77
2022-11-24T08:03:36.453Z,599.31
2022-11-24T08:04:36.676Z,601.45
2022-11-24T08:05:38.434Z,601.99
2022-11-24T08:06:40.977Z,604.16
2022-11-24T08:07:36.353Z,606.34
2022-11-24T08:08:36.393Z,604.70
2022-11-24T08:09:36.283Z,605.25
2022-11-24T08:35:34.894Z,642.89
2022-11-24T08:36:36.039Z,641.05
2022-11-24T08:37:35.906Z,636.20
2022-11-24T08:38:35.971Z,636.80
2022-11-24T08:39:35.890Z,639.83
2022-11-24T08:40:35.948Z,643.51
2022-11-24T08:41:35.892Z,647.85
2022-11-24T08:42:35.939Z,644.74
2022-11-24T08:43:35.820Z,643.51
2022-11-24T08:44:36.506Z,648.48
2022-11-24T08:45:41.188Z,650.36
2022-11-24T09:06:34.568Z,648.48
2022-11-24T09:07:35.663Z,645.98
2022-11-24T09:08:35.488Z,645.98
2022-11-24T09:09:35.571Z,650.99
2022-11-24T09:10:35.456Z,645.98
2022-11-24T09:11:35.668Z,652.89
2022-11-24T09:12:35.443Z,653.52
2022-11-24T09:13:35.500Z,652.89
2022-11-24T09:14:35.813Z,653.52
2022-11-24T09:15:35.455Z,646.60
2022-11-24T09:45:57.568Z,606.34
2022-11-24T09:46:35.143Z,600.91
2022-11-24T09:47:34.946Z,601.99
2022-11-24T10:27:33.379Z,616.92
2022-11-24T10:29:33.634Z,623.79
2022-11-24T10:30:34.450Z,620.91
2022-11-24T10:31:34.445Z,620.91
2022-11-24T10:32:34.424Z,623.21
2022-11-24T10:33:34.338Z,622.06
2022-11-24T10:34:34.395Z,626.12
2022-11-24T10:35:34.297Z,624.37
2022-11-24T10:36:34.399Z,627.87
2022-11-24T10:37:34.287Z,627.87
2022-11-24T10:38:34.366Z,628.46
2022-11-24T10:39:34.556Z,627.28
2022-11-24T10:40:57.861Z,628.46
2022-11-24T10:41:34.227Z,638.01
2022-11-24T10:42:34.296Z,632.01
2022-11-24T10:43:34.202Z,636.20
2022-11-24T10:44:34.291Z,635.59
2022-11-24T10:45:34.165Z,638.61
2022-11-24T10:46:39.183Z,636.20
2022-11-24T10:47:34.150Z,634.99
2022-11-24T10:48:34.226Z,632.60
2022-11-24T10:49:34.573Z,636.80
2022-11-24T10:50:35.177Z,643.51
2022-11-24T10:51:34.189Z,649.10
2022-11-24T10:52:34.075Z,645.98
2022-11-24T10:53:34.137Z,649.73
2022-11-24T10:54:34.059Z,654.80
2022-11-24T10:55:34.122Z,659.30
2022-11-24T10:56:34.015Z,657.36
2022-11-24T10:57:34.084Z,663.20
2022-11-24T10:58:37.783Z,661.24
2022-11-24T10:59:34.351Z,664.51
2022-11-24T11:00:33.979Z,669.15
2022-11-24T11:02:33.092Z,662.55
2022-11-24T11:03:33.991Z,661.24
2022-11-24T11:04:33.920Z,665.17
2022-11-24T11:05:33.980Z,667.82
2022-11-24T11:06:33.897Z,669.15
2022-11-24T11:07:34.004Z,670.48
2022-11-24T11:08:33.879Z,672.50
2022-11-24T11:09:34.240Z,675.20
2022-11-24T11:10:33.829Z,672.50
2022-11-24T11:11:33.903Z,674.52
2022-11-24T11:12:43.878Z,671.15
2022-11-24T11:13:34.071Z,667.15
2022-11-24T11:14:33.789Z,671.82
2022-11-24T11:20:00.088Z,672.50
2022-11-24T11:20:38.382Z,668.48
2022-11-24T11:21:33.706Z,675.88
2022-11-24T11:28:32.868Z,673.17
2022-11-24T11:31:37.128Z,679.29
2022-11-24T11:34:32.479Z,675.88
2022-11-24T11:35:33.571Z,681.36
2022-11-24T11:36:33.504Z,686.23
2022-11-24T11:37:33.729Z,686.23
2022-11-24T11:38:33.451Z,687.64
2022-11-24T11:39:37.913Z,692.60
2022-11-24T11:40:33.440Z,696.91
2022-11-24T11:41:33.506Z,699.09
2022-11-24T11:43:32.463Z,696.19
2022-11-24T11:44:33.907Z,690.46
2022-11-24T11:45:33.442Z,694.75
2022-11-24T11:51:32.471Z,702.01
2022-11-24T11:52:33.371Z,691.18
2022-11-24T11:53:33.284Z,695.47
2022-11-24T12:09:32.099Z,717.76
2022-11-24T12:10:33.110Z,718.53
2022-11-24T12:11:33.003Z,711.68
2022-11-24T12:19:32.175Z,725.51
2022-11-24T12:20:32.989Z,723.17
2022-11-24T12:41:41.578Z,789.78
2022-11-24T12:42:32.673Z,798.69
2022-11-24T12:43:32.586Z,804.42
2022-11-24T13:11:31.171Z,862.17
2022-11-24T13:12:32.282Z,866.62
2022-11-24T13:13:32.183Z,868.30
2022-11-24T13:14:32.570Z,880.23
2022-11-24T13:15:45.686Z,875.65
2022-11-24T13:24:23.888Z,886.03
2022-11-24T13:24:30.347Z,939.24
2022-11-24T13:25:30.270Z,900.26
2022-11-24T13:26:30.328Z,887.20
2022-11-24T13:27:30.234Z,875.08
2022-11-24T13:29:01.361Z,870.54
2022-11-24T13:29:30.217Z,869.42
2022-11-24T13:30:30.277Z,867.74
2022-11-24T13:31:30.312Z,861.07
2022-11-24T13:37:34.449Z,835.92
2022-11-24T13:38:30.173Z,839.57
2022-11-24T13:39:30.064Z,836.44
2022-11-24T13:40:30.148Z,838.52
2022-11-24T13:41:30.039Z,845.38
2022-11-24T13:42:41.734Z,846.97
2022-11-24T13:43:30.014Z,852.34
2022-11-24T13:44:30.087Z,862.17
2022-11-24T13:45:29.987Z,863.28
2022-11-24T13:46:30.119Z,866.62
2022-11-24T13:47:29.971Z,872.80
2022-11-24T13:48:30.022Z,871.11
2022-11-24T13:49:29.936Z,873.37
2022-11-24T13:50:30.018Z,869.98
2022-11-24T13:51:29.917Z,872.24
2022-11-24T13:52:29.995Z,869.98
2022-11-24T13:53:29.888Z,874.51
2022-11-24T13:54:29.962Z,880.81
2022-11-24T13:55:29.922Z,883.12
2022-11-24T13:56:30.569Z,883.12
2022-11-24T13:57:29.830Z,881.38
2022-11-24T13:58:29.901Z,875.65
2022-11-24T13:59:29.819Z,880.23
2022-11-24T14:00:29.854Z,881.96
2022-11-24T14:01:29.866Z,873.94
2022-11-24T14:02:29.871Z,876.79
2022-11-24T14:03:29.757Z,873.37
2022-11-24T14:04:32.092Z,875.65
2022-11-24T14:05:29.717Z,877.36
2022-11-24T14:06:29.809Z,871.11
2022-11-24T14:07:29.708Z,875.08
2022-11-24T14:08:29.755Z,873.37
2022-11-24T14:09:29.668Z,870.54
2022-11-24T14:10:30.731Z,861.07
2022-11-24T14:11:29.727Z,851.80
2022-11-24T14:12:29.616Z,846.44
2022-11-24T14:13:29.699Z,850.72
2022-11-24T14:14:29.598Z,844.84
2022-11-24T14:15:29.659Z,849.11
2022-11-24T14:16:29.656Z,849.65
2022-11-24T14:17:29.648Z,843.78
2022-11-24T14:18:29.551Z,841.67
2022-11-24T14:19:32.248Z,846.97
2022-11-24T14:20:29.507Z,839.05
2022-11-24T14:21:29.584Z,840.62
2022-11-24T14:22:29.497Z,834.36
2022-11-24T14:23:29.553Z,836.44
2022-11-24T14:24:29.457Z,832.30
2022-11-24T14:25:29.524Z,832.30
2022-11-24T14:26:29.418Z,839.05
2022-11-24T14:27:30.485Z,840.09
2022-11-24T14:28:29.533Z,832.30
2022-11-24T14:29:29.382Z,834.36
2022-11-24T14:30:29.454Z,834.36
2022-11-24T14:31:29.399Z,837.48
2022-11-24T14:32:29.425Z,840.62
2022-11-24T14:33:29.343Z,843.78
2022-11-24T14:34:29.539Z,849.11
2022-11-24T14:35:29.423Z,840.09
2022-11-24T14:36:29.365Z,846.97
2022-11-24T14:37:29.277Z,846.44
2022-11-24T14:38:29.346Z,851.80
2022-11-24T14:39:29.261Z,855.59
